Time;durP1;ratioP1;P1;durP2;ratioP2;P2;SDS_P1;SDS_P2;PMS_P1;PMS_P2;Temp;Humidity;BMP_temperature;BMP_pressure;BME280_temperature;BME280_humidity;BME280_pressure;Samples;Min_cycle;Max_cycle;Signal;HPM_P1;HPM_P2
2023/01/18 00:00:40;;;;;;;8.43;3.37;;;-0.30;99.90;;;;;;5027028;28;20033;-82
2023/01/18 00:03:10;;;;;;;6.33;3.77;;;-0.30;99.90;;;;;;5010572;28;20192;-82
2023/01/18 00:05:39;;;;;;;6.53;3.93;;;-0.40;99.90;;;;;;5028141;28;20028;-82
2023/01/18 00:08:06;;;;;;;7.00;3.70;;;-0.40;99.90;;;;;;5009638;28;20024;-82
2023/01/18 00:10:32;;;;;;;6.83;3.97;;;-0.50;99.90;;;;;;5029581;28;20052;-82
2023/01/18 00:12:57;;;;;;;5.37;3.40;;;-0.50;99.90;;;;;;5029953;28;20025;-82
2023/01/18 00:15:23;;;;;;;8.33;3.50;;;-0.50;99.90;;;;;;5028007;28;20030;-82
2023/01/18 00:17:52;;;;;;;4.40;3.10;;;-0.50;99.90;;;;;;5029065;28;20132;-82
2023/01/18 00:20:21;;;;;;;8.63;3.60;;;-0.60;99.90;;;;;;5028197;28;20431;-82
2023/01/18 00:22:47;;;;;;;6.00;3.30;;;-0.60;99.90;;;;;;5030357;28;20037;-82
2023/01/18 00:25:12;;;;;;;5.37;3.47;;;-0.60;99.90;;;;;;5027861;28;20539;-82
2023/01/18 00:27:39;;;;;;;6.50;2.90;;;-0.60;99.90;;;;;;5025448;28;20029;-82
2023/01/18 00:30:06;;;;;;;5.23;3.43;;;-0.70;99.90;;;;;;5028135;28;20021;-82
2023/01/18 00:32:32;;;;;;;5.33;3.13;;;-0.60;99.90;;;;;;5030895;28;20043;-82
2023/01/18 00:34:59;;;;;;;5.77;3.53;;;-0.70;99.90;;;;;;5026129;28;20021;-82
2023/01/18 00:37:25;;;;;;;4.07;3.00;;;-0.70;99.90;;;;;;5010196;28;20120;-82
2023/01/18 00:39:51;;;;;;;10.93;3.50;;;-0.70;99.90;;;;;;5010172;28;20187;-82
2023/01/18 00:45:01;;;;;;;4.47;3.00;;;-0.70;99.90;;;;;;5031040;28;20075;-82
2023/01/18 00:47:27;;;;;;;4.60;3.20;;;-0.70;99.90;;;;;;5028488;28;20029;-82
2023/01/18 00:49:52;;;;;;;4.57;3.17;;;-0.70;99.90;;;;;;5030508;28;20191;-82
2023/01/18 00:52:18;;;;;;;8.07;2.83;;;-0.80;99.90;;;;;;5029722;28;20065;-82
2023/01/18 00:54:43;;;;;;;6.07;3.00;;;-0.80;99.90;;;;;;5028453;28;20037;-82
2023/01/18 00:57:09;;;;;;;4.83;3.13;;;-0.80;99.90;;;;;;5030124;28;20094;-82
2023/01/18 00:59:34;;;;;;;5.93;2.77;;;-0.80;99.90;;;;;;5028999;28;20104;-82
2023/01/18 01:02:00;;;;;;;4.37;2.77;;;-0.80;99.90;;;;;;5028455;28;20026;-82
2023/01/18 01:07:10;;;;;;;4.40;2.63;;;-0.80;99.90;;;;;;5028100;28;20436;-82
2023/01/18 01:09:38;;;;;;;4.00;2.90;;;-0.90;99.90;;;;;;5030844;28;20461;-82
2023/01/18 01:26:09;;;;;;;6.70;3.00;;;-0.90;99.90;;;;;;5014504;28;20075;-82
2023/01/18 01:28:40;;;;;;;3.93;2.77;;;-0.90;99.90;;;;;;5015379;28;20026;-82
2023/01/18 01:31:08;;;;;;;3.80;2.60;;;-1.00;99.90;;;;;;5033448;28;20029;-82
2023/01/18 01:33:34;;;;;;;4.40;2.70;;;-1.00;99.90;;;;;;5029362;28;20391;-82
2023/01/18 01:36:21;;;;;;;3.30;2.63;;;-1.00;99.90;;;;;;5030518;28;20107;-81
2023/01/18 01:38:46;;;;;;;4.30;2.90;;;-1.10;99.90;;;;;;5033331;28;20067;-82
2023/01/18 01:41:22;;;;;;;4.13;2.50;;;-1.10;99.90;;;;;;5025810;28;20147;-82
2023/01/18 01:43:56;;;;;;;6.87;2.57;;;-1.10;99.90;;;;;;5027725;28;20024;-83
2023/01/18 01:46:40;;;;;;;3.17;1.73;;;-1.10;99.90;;;;;;5033241;28;20026;-83
2023/01/18 01:49:11;;;;;;;3.90;2.23;;;-1.10;99.90;;;;;;5015380;28;20799;-83
2023/01/18 01:51:41;;;;;;;4.07;2.30;;;-1.10;99.90;;;;;;5023407;28;20029;-82
2023/01/18 01:54:15;;;;;;;4.93;2.70;;;-1.10;99.90;;;;;;5028789;28;20033;-83
2023/01/18 01:56:42;;;;;;;3.42;2.53;;;-1.10;99.90;;;;;;5016318;28;20040;-82
2023/01/18 01:59:09;;;;;;;5.27;2.80;;;-1.10;99.90;;;;;;5015247;28;20363;-82
2023/01/18 02:01:36;;;;;;;3.73;2.40;;;-1.10;99.90;;;;;;5029886;28;20029;-82
2023/01/18 02:04:02;;;;;;;5.93;2.40;;;-1.20;99.90;;;;;;5029894;28;20118;-82
2023/01/18 02:06:33;;;;;;;2.90;2.00;;;-1.20;99.90;;;;;;5010907;28;20475;-82
2023/01/18 02:09:01;;;;;;;3.77;1.90;;;-1.20;99.90;;;;;;5032024;28;20441;-81
2023/01/18 02:11:26;;;;;;;3.87;2.10;;;-1.10;99.90;;;;;;5033767;28;20040;-82
2023/01/18 02:13:55;;;;;;;4.37;2.10;;;-1.10;99.90;;;;;;5019793;28;20029;-82
2023/01/18 02:17:01;;;;;;;3.27;2.23;;;-1.10;99.90;;;;;;5030383;28;20406;-82
2023/01/18 02:20:08;;;;;;;3.97;2.05;;;-1.10;99.90;;;;;;5035839;28;20029;-82
2023/01/18 02:23:01;;;;;;;3.83;2.20;;;-1.10;99.90;;;;;;5030994;28;20033;-82
2023/01/18 02:26:02;;;;;;;3.50;2.20;;;-1.10;99.90;;;;;;5036796;28;20155;-82
2023/01/18 02:28:36;;;;;;;2.77;2.00;;;-1.10;99.90;;;;;;5030468;28;20471;-83
2023/01/18 02:31:20;;;;;;;6.37;2.33;;;-1.10;99.90;;;;;;5026294;28;20374;-82
2023/01/18 02:33:54;;;;;;;2.93;2.10;;;-1.10;99.90;;;;;;5036539;28;20025;-82
2023/01/18 02:36:53;;;;;;;3.90;2.27;;;-1.10;99.90;;;;;;5036466;28;20025;-82
2023/01/18 02:39:37;;;;;;;4.03;2.10;;;-1.10;99.90;;;;;;5031041;28;20087;-82
2023/01/18 02:48:13;;;;;;;5.00;2.67;;;-1.00;99.90;;;;;;5034474;28;20083;-82
2023/01/18 02:50:39;;;;;;;4.23;2.70;;;-0.90;99.90;;;;;;5036181;28;20034;-82
2023/01/18 02:53:04;;;;;;;4.33;2.90;;;-0.90;99.90;;;;;;5031984;28;20209;-82
2023/01/18 02:55:38;;;;;;;3.60;2.47;;;-0.90;99.90;;;;;;5014101;28;20036;-82
2023/01/18 02:58:10;;;;;;;4.70;2.83;;;-0.80;99.90;;;;;;5029710;28;20022;-83
2023/01/18 03:00:39;;;;;;;3.67;2.30;;;-0.70;99.90;;;;;;5031377;28;20021;-82
2023/01/18 03:03:09;;;;;;;4.53;2.60;;;-0.70;99.90;;;;;;5012650;28;20480;-83
2023/01/18 03:05:37;;;;;;;4.00;2.73;;;-0.60;99.90;;;;;;5012948;28;20070;-82
2023/01/18 03:08:08;;;;;;;4.10;2.53;;;-0.60;99.90;;;;;;5032450;28;20075;-82
2023/01/18 03:10:37;;;;;;;4.07;3.00;;;-0.50;99.90;;;;;;5029692;28;20045;-83
2023/01/18 03:13:24;;;;;;;3.83;2.67;;;-0.50;99.90;;;;;;5028227;28;20118;-83
2023/01/18 03:15:57;;;;;;;4.60;3.10;;;-0.40;99.90;;;;;;5030457;28;20049;-83
2023/01/18 03:18:30;;;;;;;5.57;3.00;;;-0.40;99.90;;;;;;5032239;28;20091;-82
2023/01/18 03:20:56;;;;;;;4.57;2.93;;;-0.40;99.90;;;;;;5029512;28;20024;-83
2023/01/18 03:23:40;;;;;;;4.63;3.13;;;-0.40;99.90;;;;;;5032398;28;20025;-83
2023/01/18 03:26:13;;;;;;;4.90;3.10;;;-0.40;99.90;;;;;;5029903;28;20024;-83
2023/01/18 03:34:30;;;;;;;4.17;2.27;;;-0.40;99.90;;;;;;5031939;28;20113;-83
2023/01/18 03:37:03;;;;;;;4.23;3.07;;;-0.40;99.90;;;;;;5028945;28;20052;-82
2023/01/18 03:39:37;;;;;;;4.83;2.70;;;-0.30;99.90;;;;;;5028560;28;20033;-83
2023/01/18 03:42:14;;;;;;;3.37;2.60;;;-0.30;99.90;;;;;;5027444;28;20049;-82
2023/01/18 03:45:09;;;;;;;5.20;2.30;;;-0.30;99.90;;;;;;5010508;28;20034;-82
2023/01/18 03:47:35;;;;;;;2.80;1.97;;;-0.30;99.90;;;;;;5033147;28;20017;-82
2023/01/18 03:50:01;;;;;;;4.17;2.40;;;-0.30;99.90;;;;;;5033743;28;20048;-83
2023/01/18 03:52:41;;;;;;;3.97;2.93;;;-0.20;99.90;;;;;;5029444;28;20119;-82
2023/01/18 03:55:41;;;;;;;3.50;2.50;;;-0.10;99.90;;;;;;5033462;28;20060;-82
2023/01/18 03:58:11;;;;;;;5.07;2.67;;;-0.10;99.90;;;;;;5021226;28;20033;-82
2023/01/18 04:00:37;;;;;;;5.70;2.83;;;-0.10;99.90;;;;;;5031598;28;20022;-82
2023/01/18 04:03:03;;;;;;;4.33;2.83;;;-0.10;99.90;;;;;;5029985;28;20022;-82
2023/01/18 04:05:29;;;;;;;3.23;2.30;;;-0.10;99.90;;;;;;5027179;28;20027;-82
2023/01/18 04:07:55;;;;;;;5.20;2.90;;;0.00;99.90;;;;;;5025288;28;20375;-82
2023/01/18 04:10:20;;;;;;;4.73;2.93;;;0.00;99.90;;;;;;5029607;28;20440;-82
2023/01/18 04:12:46;;;;;;;3.60;2.60;;;0.00;99.90;;;;;;5010668;28;20104;-83
2023/01/18 04:15:11;;;;;;;3.80;2.50;;;0.00;99.90;;;;;;5028582;28;20462;-82
2023/01/18 04:17:38;;;;;;;3.70;2.33;;;0.00;99.90;;;;;;5028210;28;20013;-83
2023/01/18 04:20:04;;;;;;;3.70;2.43;;;0.00;99.90;;;;;;5027414;28;20104;-83
2023/01/18 04:22:30;;;;;;;4.53;2.37;;;0.10;99.90;;;;;;5028793;28;20021;-83
2023/01/18 04:24:55;;;;;;;4.43;2.73;;;0.10;99.90;;;;;;5029429;28;20485;-82
2023/01/18 04:27:23;;;;;;;5.47;2.63;;;0.10;99.90;;;;;;5012742;28;20022;-83
2023/01/18 04:29:49;;;;;;;4.90;3.00;;;0.20;99.90;;;;;;5028541;28;20101;-83
2023/01/18 04:32:15;;;;;;;5.40;2.80;;;0.20;99.90;;;;;;5029338;28;20128;-82
2023/01/18 04:34:40;;;;;;;4.73;2.77;;;0.20;99.90;;;;;;5029633;28;20025;-83
2023/01/18 04:37:06;;;;;;;4.63;2.40;;;0.20;99.90;;;;;;5029565;28;20029;-82
2023/01/18 04:39:31;;;;;;;6.37;3.03;;;0.20;99.90;;;;;;5028642;28;20597;-83
2023/01/18 04:41:57;;;;;;;3.70;2.50;;;0.20;99.90;;;;;;5030914;28;20046;-82
2023/01/18 04:44:22;;;;;;;5.30;2.43;;;0.20;99.90;;;;;;5029303;28;20567;-83
2023/01/18 04:46:48;;;;;;;4.07;2.47;;;0.20;99.90;;;;;;5030159;28;20076;-82
2023/01/18 04:49:15;;;;;;;4.10;2.20;;;0.20;99.90;;;;;;5026975;28;20504;-82
2023/01/18 04:51:41;;;;;;;8.37;2.30;;;0.20;99.90;;;;;;5027467;28;20021;-83
2023/01/18 04:54:08;;;;;;;3.57;2.40;;;0.30;99.90;;;;;;5025137;28;20112;-82
2023/01/18 04:56:33;;;;;;;3.00;2.00;;;0.30;99.90;;;;;;5027961;28;20076;-82
2023/01/18 04:58:59;;;;;;;5.97;2.87;;;0.30;99.90;;;;;;5027145;28;20025;-83
2023/01/18 05:01:25;;;;;;;5.03;2.53;;;0.40;99.90;;;;;;5008243;28;20046;-82
2023/01/18 05:03:55;;;;;;;5.30;2.50;;;0.40;99.90;;;;;;5026752;28;20026;-82
2023/01/18 05:06:21;;;;;;;3.50;1.80;;;0.50;99.90;;;;;;5028853;28;20068;-83
2023/01/18 05:08:47;;;;;;;3.73;2.57;;;0.50;99.90;;;;;;5025930;28;20482;-82
2023/01/18 05:11:15;;;;;;;3.93;1.97;;;0.50;99.90;;;;;;5029247;28;20035;-83
2023/01/18 05:13:42;;;;;;;3.33;1.87;;;0.60;99.90;;;;;;5027017;28;20108;-83
2023/01/18 05:16:13;;;;;;;3.07;1.70;;;0.70;99.90;;;;;;5027822;28;20099;-83
2023/01/18 05:18:38;;;;;;;3.13;1.60;;;0.70;99.90;;;;;;5009693;28;20029;-83
2023/01/18 05:21:04;;;;;;;3.50;1.60;;;0.80;99.90;;;;;;5026231;28;20076;-83
2023/01/18 05:23:30;;;;;;;2.73;1.70;;;0.80;99.90;;;;;;5027335;28;20033;-83
2023/01/18 05:25:57;;;;;;;3.10;1.80;;;0.80;99.90;;;;;;5028663;28;20025;-83
2023/01/18 05:28:24;;;;;;;4.13;1.70;;;0.80;99.90;;;;;;5009879;28;20066;-83
2023/01/18 05:30:50;;;;;;;3.37;1.70;;;0.80;99.90;;;;;;5029743;28;21305;-83
2023/01/18 05:33:17;;;;;;;2.57;1.70;;;0.80;99.90;;;;;;5025699;28;20028;-83
2023/01/18 05:35:54;;;;;;;3.20;1.67;;;0.80;99.90;;;;;;5026800;28;20079;-83
2023/01/18 05:38:21;;;;;;;3.53;1.83;;;0.70;99.90;;;;;;5027420;28;20036;-83
2023/01/18 05:40:52;;;;;;;2.43;1.87;;;0.70;99.90;;;;;;5026088;28;21013;-83
2023/01/18 05:43:20;;;;;;;2.67;1.67;;;0.80;99.90;;;;;;5011161;28;20779;-83
2023/01/18 05:45:45;;;;;;;3.73;2.10;;;0.70;99.90;;;;;;5030215;28;20014;-83
2023/01/18 05:48:11;;;;;;;4.40;1.97;;;0.70;99.90;;;;;;5033618;28;20021;-83
2023/01/18 05:50:42;;;;;;;3.07;1.93;;;0.70;99.90;;;;;;5032432;28;20398;-83
2023/01/18 05:53:08;;;;;;;3.40;1.80;;;0.80;99.90;;;;;;5027666;28;20022;-83
2023/01/18 05:55:34;;;;;;;2.57;1.80;;;0.80;99.90;;;;;;5029807;28;20040;-83
2023/01/18 05:58:00;;;;;;;2.13;1.67;;;0.80;99.90;;;;;;5029201;28;20033;-83
2023/01/18 06:00:26;;;;;;;2.47;1.87;;;0.80;99.90;;;;;;5026469;28;20052;-82
2023/01/18 06:02:52;;;;;;;4.37;1.90;;;0.80;99.90;;;;;;5008021;28;20045;-77
2023/01/18 06:05:20;;;;;;;4.17;2.00;;;0.80;99.90;;;;;;5029719;28;20105;-82
2023/01/18 06:07:49;;;;;;;5.30;2.30;;;0.80;99.90;;;;;;5034094;28;20028;-82
2023/01/18 06:10:15;;;;;;;5.00;2.20;;;0.80;99.90;;;;;;5030758;28;20025;-83
2023/01/18 06:12:40;;;;;;;4.20;2.20;;;0.90;99.90;;;;;;5033795;28;20519;-83
2023/01/18 06:15:07;;;;;;;2.93;2.00;;;1.00;99.90;;;;;;5033055;28;20028;-82
2023/01/18 06:17:33;;;;;;;3.00;2.30;;;1.00;99.90;;;;;;5015340;28;20088;-82
2023/01/18 06:19:59;;;;;;;4.47;2.53;;;1.00;99.90;;;;;;5033057;28;20040;-83
2023/01/18 06:22:25;;;;;;;4.70;2.60;;;1.00;99.90;;;;;;5033066;28;20425;-82
2023/01/18 06:24:50;;;;;;;7.83;3.47;;;1.00;99.90;;;;;;5032599;28;20120;-90
2023/01/18 06:27:16;;;;;;;6.50;3.10;;;0.90;99.90;;;;;;5031149;28;20053;-79
2023/01/18 06:29:42;;;;;;;4.20;2.67;;;0.90;99.90;;;;;;5032741;28;20474;-83
2023/01/18 06:32:07;;;;;;;4.60;2.50;;;0.90;99.90;;;;;;5033162;28;20064;-83
2023/01/18 06:34:33;;;;;;;5.33;3.17;;;0.90;99.90;;;;;;5032756;28;20033;-83
2023/01/18 06:36:58;;;;;;;4.87;2.13;;;0.90;99.90;;;;;;5032961;28;20109;-82
2023/01/18 06:39:24;;;;;;;5.90;2.33;;;0.90;99.90;;;;;;5032216;28;20060;-83
2023/01/18 06:41:50;;;;;;;3.77;2.33;;;0.90;99.90;;;;;;5032548;28;20376;-83
2023/01/18 06:44:16;;;;;;;4.20;2.20;;;0.80;99.90;;;;;;5032926;28;20025;-83
2023/01/18 06:46:44;;;;;;;4.67;2.60;;;0.80;99.90;;;;;;5032647;28;20563;-83
2023/01/18 06:49:10;;;;;;;3.00;2.30;;;0.80;99.90;;;;;;5033006;28;20172;-83
2023/01/18 06:51:37;;;;;;;4.50;2.40;;;0.80;99.90;;;;;;5032533;28;20021;-83
2023/01/18 06:54:02;;;;;;;6.43;2.10;;;0.70;99.90;;;;;;5032080;28;20025;-83
2023/01/18 06:56:28;;;;;;;4.73;2.33;;;0.70;99.90;;;;;;5013008;28;20382;-83
2023/01/18 06:58:56;;;;;;;4.40;2.30;;;0.70;99.90;;;;;;5035629;28;20030;-82
2023/01/18 07:01:22;;;;;;;4.93;2.90;;;0.70;99.90;;;;;;5018321;28;20060;-83
2023/01/18 07:03:48;;;;;;;5.20;3.10;;;0.70;99.90;;;;;;5035536;28;20466;-83
2023/01/18 07:06:14;;;;;;;4.67;2.87;;;0.70;99.90;;;;;;5035907;28;20033;-83
2023/01/18 07:08:40;;;;;;;6.70;2.90;;;0.80;99.90;;;;;;5034791;28;20045;-83
2023/01/18 07:11:08;;;;;;;3.53;2.10;;;0.80;99.90;;;;;;5015254;28;20493;-83
2023/01/18 07:13:34;;;;;;;4.47;2.40;;;0.90;99.90;;;;;;5032370;28;20144;-83
2023/01/18 07:16:01;;;;;;;3.90;2.10;;;0.90;99.90;;;;;;5016936;28;20033;-83
2023/01/18 07:18:28;;;;;;;3.73;2.30;;;1.00;99.90;;;;;;5029383;28;20025;-83
2023/01/18 07:21:01;;;;;;;4.03;2.20;;;1.20;99.90;;;;;;5024968;28;20232;-83
2023/01/18 07:23:27;;;;;;;2.97;2.03;;;1.20;99.90;;;;;;5028186;28;20376;-83
2023/01/18 07:26:08;;;;;;;4.13;2.00;;;1.20;99.90;;;;;;5024100;28;20029;-83
2023/01/18 07:28:35;;;;;;;2.83;2.10;;;1.30;99.90;;;;;;5034388;28;20087;-83
2023/01/18 07:31:01;;;;;;;3.67;2.20;;;1.30;99.90;;;;;;5017785;28;20030;-83
2023/01/18 07:33:27;;;;;;;5.60;2.53;;;1.40;99.90;;;;;;5032356;28;20030;-84
2023/01/18 07:35:55;;;;;;;5.83;2.50;;;1.50;99.90;;;;;;5036133;28;20470;-84
2023/01/18 07:38:21;;;;;;;2.90;1.70;;;1.50;99.90;;;;;;5035471;28;20032;-83
2023/01/18 07:40:47;;;;;;;4.83;2.10;;;1.70;99.90;;;;;;5035515;28;20088;-83
2023/01/18 07:43:14;;;;;;;3.03;1.70;;;1.70;99.90;;;;;;5010960;28;20050;-83
2023/01/18 07:45:40;;;;;;;3.90;2.00;;;1.80;99.90;;;;;;5035410;28;20366;-83
2023/01/18 07:48:06;;;;;;;4.53;2.40;;;1.70;99.90;;;;;;5031512;28;20021;-83
2023/01/18 07:50:34;;;;;;;5.20;2.10;;;1.70;99.90;;;;;;5034314;28;20516;-83
2023/01/18 07:53:08;;;;;;;2.60;1.57;;;1.70;99.90;;;;;;5030046;28;20048;-84
2023/01/18 07:55:34;;;;;;;1.83;1.40;;;1.80;99.90;;;;;;5025280;28;20110;-83
2023/01/18 07:58:00;;;;;;;3.20;1.70;;;1.90;99.90;;;;;;5007203;28;20030;-83
2023/01/18 08:00:26;;;;;;;2.77;1.50;;;2.00;99.90;;;;;;5035415;28;20083;-82
2023/01/18 08:02:53;;;;;;;3.07;2.00;;;2.10;99.90;;;;;;5035027;28;20033;-82
2023/01/18 08:05:22;;;;;;;2.60;1.50;;;2.10;99.90;;;;;;5035416;28;20061;-82
2023/01/18 08:07:52;;;;;;;4.00;2.30;;;2.10;99.90;;;;;;5013770;28;20052;-82
2023/01/18 08:10:19;;;;;;;5.13;2.20;;;2.10;99.90;;;;;;5033804;28;20061;-82
2023/01/18 08:12:44;;;;;;;3.03;1.50;;;2.10;99.90;;;;;;5035168;28;20025;-82
2023/01/18 08:15:10;;;;;;;6.53;2.13;;;2.10;99.90;;;;;;5035279;28;20508;-82
2023/01/18 08:17:36;;;;;;;3.57;1.67;;;2.20;99.90;;;;;;5035065;28;20116;-82
2023/01/18 08:20:04;;;;;;;3.47;1.93;;;2.20;99.90;;;;;;5034794;28;20029;-82
2023/01/18 08:22:33;;;;;;;2.03;1.40;;;2.20;99.90;;;;;;5034868;28;20036;-81
2023/01/18 08:24:58;;;;;;;4.70;2.10;;;2.30;99.90;;;;;;5034855;28;20034;-82
2023/01/18 08:27:24;;;;;;;3.70;1.90;;;2.30;99.90;;;;;;5034563;28;20449;-82
2023/01/18 08:29:49;;;;;;;3.07;1.70;;;2.30;99.90;;;;;;5034801;28;20112;-82
2023/01/18 08:32:15;;;;;;;2.43;1.73;;;2.30;99.90;;;;;;5034426;28;20108;-83
2023/01/18 08:34:40;;;;;;;3.57;1.70;;;2.30;99.90;;;;;;5035216;28;20068;-82
2023/01/18 08:37:06;;;;;;;4.43;1.67;;;2.40;99.90;;;;;;5034408;28;20061;-82
2023/01/18 08:39:31;;;;;;;2.57;1.67;;;2.40;99.90;;;;;;5016713;28;20040;-82
2023/01/18 08:41:57;;;;;;;3.80;1.97;;;2.40;99.90;;;;;;5034125;28;20097;-82
2023/01/18 08:44:23;;;;;;;3.23;1.87;;;2.40;99.90;;;;;;5034393;28;20025;-82
2023/01/18 08:46:48;;;;;;;2.77;1.77;;;2.40;99.90;;;;;;5034176;28;20029;-80
2023/01/18 08:49:15;;;;;;;4.87;1.77;;;2.50;99.90;;;;;;5026359;28;20026;-83
2023/01/18 08:51:40;;;;;;;3.43;1.63;;;2.50;99.90;;;;;;5028937;28;20030;-82
2023/01/18 08:54:06;;;;;;;3.77;1.90;;;2.60;99.90;;;;;;5034406;28;20036;-82
2023/01/18 08:56:32;;;;;;;4.63;2.00;;;2.60;99.90;;;;;;5034585;28;20037;-82
2023/01/18 08:58:58;;;;;;;4.63;1.87;;;2.60;99.90;;;;;;5033670;28;20104;-83
2023/01/18 09:01:24;;;;;;;3.50;1.90;;;2.70;99.90;;;;;;5033746;28;20021;-82
2023/01/18 09:03:53;;;;;;;4.07;2.07;;;2.70;99.90;;;;;;5031804;28;20446;-80
2023/01/18 09:06:19;;;;;;;3.73;2.03;;;2.70;99.90;;;;;;5015570;28;20033;-81
2023/01/18 09:08:48;;;;;;;3.13;1.90;;;2.70;99.90;;;;;;5033796;28;20449;-81
2023/01/18 09:11:15;;;;;;;4.87;2.20;;;2.70;99.90;;;;;;5033777;28;20061;-84
2023/01/18 09:13:40;;;;;;;9.20;1.87;;;2.70;99.90;;;;;;5029264;28;20052;-83
2023/01/18 09:16:08;;;;;;;3.03;1.60;;;2.90;99.90;;;;;;5033404;28;20033;-83
2023/01/18 09:18:34;;;;;;;6.30;1.80;;;2.90;99.90;;;;;;5015616;28;20033;-83
2023/01/18 09:21:08;;;;;;;3.50;1.50;;;3.00;99.90;;;;;;5033451;28;20060;-83
2023/01/18 09:23:35;;;;;;;3.37;2.03;;;3.00;99.90;;;;;;5019646;28;20370;-83
2023/01/18 09:26:06;;;;;;;7.03;1.80;;;3.10;99.90;;;;;;5033860;28;20112;-84
2023/01/18 09:28:32;;;;;;;3.70;1.40;;;3.00;99.90;;;;;;5033496;28;20706;-83
2023/01/18 09:31:02;;;;;;;3.33;2.53;;;3.00;99.90;;;;;;5032761;28;20032;-84
2023/01/18 09:33:29;;;;;;;3.27;1.57;;;3.20;99.90;;;;;;5013729;28;20030;-84
2023/01/18 09:35:56;;;;;;;4.43;2.10;;;3.10;99.90;;;;;;5013581;28;20033;-84
2023/01/18 09:38:22;;;;;;;4.10;2.00;;;3.10;99.90;;;;;;5026155;28;20034;-85
2023/01/18 09:40:50;;;;;;;5.57;2.00;;;3.10;99.90;;;;;;5033493;28;20056;-84
2023/01/18 09:43:27;;;;;;;4.40;2.20;;;3.20;99.90;;;;;;5033360;28;20028;-84
2023/01/18 09:45:52;;;;;;;3.60;1.60;;;3.20;99.90;;;;;;5033345;28;20029;-84
2023/01/18 09:48:39;;;;;;;6.07;1.50;;;3.30;99.90;;;;;;5033336;28;20029;-89
2023/01/18 09:51:10;;;;;;;2.03;1.50;;;3.30;99.90;;;;;;5015361;28;20057;-84
2023/01/18 09:53:42;;;;;;;2.50;1.60;;;3.40;99.90;;;;;;5033058;28;20029;-84
2023/01/18 09:56:14;;;;;;;3.23;1.43;;;3.40;99.90;;;;;;5014004;28;20117;-85
2023/01/18 09:58:52;;;;;;;2.70;1.93;;;3.40;99.90;;;;;;5033056;28;20076;-85
2023/01/18 10:01:22;;;;;;;3.00;2.00;;;3.40;99.90;;;;;;5033612;28;20358;-84
2023/01/18 10:04:05;;;;;;;2.00;1.50;;;3.40;99.90;;;;;;5033183;28;20088;-84
2023/01/18 10:06:45;;;;;;;7.70;1.83;;;3.30;99.90;;;;;;5008445;28;20033;-84
2023/01/18 10:09:15;;;;;;;2.40;1.60;;;3.20;99.90;;;;;;5024952;28;20097;-83
2023/01/18 10:11:53;;;;;;;2.60;1.60;;;3.20;99.90;;;;;;5013558;28;20037;-83
2023/01/18 10:14:35;;;;;;;3.20;1.40;;;3.20;99.90;;;;;;5013240;28;20030;-82
2023/01/18 10:17:07;;;;;;;2.90;1.57;;;3.10;99.90;;;;;;4996077;28;20030;-83
2023/01/18 10:19:33;;;;;;;2.90;1.50;;;3.10;99.90;;;;;;5013067;28;20106;-83
2023/01/18 10:22:21;;;;;;;3.40;1.40;;;3.20;99.90;;;;;;5013363;28;20451;-82
2023/01/18 10:25:06;;;;;;;3.33;1.30;;;3.20;99.90;;;;;;5013156;28;20018;-83
2023/01/18 10:27:54;;;;;;;1.97;1.57;;;3.20;99.90;;;;;;4996189;28;20030;-82
2023/01/18 10:30:57;;;;;;;4.63;2.50;;;3.10;99.90;;;;;;5013295;28;20026;-83
2023/01/18 10:33:26;;;;;;;1.83;1.40;;;3.00;99.90;;;;;;5015587;28;20037;-83
2023/01/18 10:35:56;;;;;;;4.80;1.53;;;3.00;99.90;;;;;;5021144;28;20463;-83
2023/01/18 10:38:27;;;;;;;1.83;1.50;;;3.00;99.90;;;;;;5018733;28;20033;-83
2023/01/18 10:41:00;;;;;;;2.90;1.60;;;2.90;99.90;;;;;;5036140;28;20077;-83
2023/01/18 10:43:28;;;;;;;3.90;1.40;;;3.00;99.90;;;;;;5035681;28;20040;-83
2023/01/18 10:45:54;;;;;;;1.70;1.30;;;3.10;99.90;;;;;;5035277;28;20379;-82
2023/01/18 10:48:24;;;;;;;3.67;1.43;;;3.10;99.90;;;;;;5035145;28;20470;-83
2023/01/18 10:50:54;;;;;;;4.93;1.90;;;3.20;99.90;;;;;;5035350;28;20403;-83
2023/01/18 10:53:22;;;;;;;2.30;1.73;;;3.30;99.90;;;;;;5035428;28;20029;-83
2023/01/18 10:56:18;;;;;;;1.80;1.53;;;3.30;99.90;;;;;;5017813;28;20478;-83
2023/01/18 10:58:49;;;;;;;3.63;1.75;;;3.40;99.90;;;;;;5019598;28;20038;-78
2023/01/18 11:01:26;;;;;;;2.37;1.80;;;3.30;99.90;;;;;;5006045;28;20836;-79
2023/01/18 11:03:56;;;;;;;5.50;1.90;;;3.20;99.90;;;;;;5025323;28;20021;-79
2023/01/18 11:06:23;;;;;;;5.10;1.87;;;3.10;99.90;;;;;;5028321;28;20367;-79
2023/01/18 11:08:50;;;;;;;3.07;2.10;;;3.10;99.90;;;;;;5024142;28;20171;-79
2023/01/18 11:14:27;;;;;;;4.13;2.00;;;3.00;99.90;;;;;;5026698;28;20088;-78
2023/01/18 11:17:11;;;;;;;3.57;2.27;;;3.00;99.90;;;;;;5025822;28;20057;-79
2023/01/18 11:19:38;;;;;;;3.00;2.40;;;2.90;99.90;;;;;;5019761;28;20052;-79
2023/01/18 11:22:11;;;;;;;3.60;2.50;;;2.90;99.90;;;;;;5023301;28;20034;-79
2023/01/18 11:24:37;;;;;;;2.53;2.17;;;2.90;99.90;;;;;;5025347;28;20025;-79
2023/01/18 11:27:10;;;;;;;4.13;2.63;;;3.00;99.90;;;;;;5024197;28;20017;-79
2023/01/18 11:29:41;;;;;;;5.47;2.77;;;3.00;99.90;;;;;;5026452;28;20026;-79
2023/01/18 11:32:14;;;;;;;5.17;2.87;;;3.00;99.90;;;;;;5036878;28;20063;-78
2023/01/18 11:34:45;;;;;;;3.83;2.97;;;3.00;99.90;;;;;;5012265;28;20482;-79
2023/01/18 11:37:36;;;;;;;5.53;3.30;;;2.90;99.90;;;;;;5032695;28;20034;-78
2023/01/18 11:40:21;;;;;;;3.17;2.70;;;2.80;99.90;;;;;;4992735;28;1068253;-78
2023/01/18 11:42:49;;;;;;;3.90;3.05;;;2.70;99.90;;;;;;5031122;28;20359;-78
2023/01/18 11:45:39;;;;;;;3.80;2.77;;;2.70;99.90;;;;;;5011379;28;21316;-78
2023/01/18 11:48:20;;;;;;;4.30;2.80;;;2.60;99.90;;;;;;5029403;28;20049;-80
2023/01/18 11:50:58;;;;;;;3.77;2.53;;;2.60;99.90;;;;;;5010404;28;20022;-80
2023/01/18 11:53:40;;;;;;;3.43;2.13;;;2.50;99.90;;;;;;5027437;28;20022;-80
2023/01/18 11:56:10;;;;;;;3.70;2.53;;;2.50;99.90;;;;;;5027413;28;20025;-80
2023/01/18 11:58:36;;;;;;;3.23;2.00;;;2.40;99.90;;;;;;5029423;28;20079;-80
2023/01/18 12:01:24;;;;;;;3.20;2.23;;;2.40;99.90;;;;;;5030537;28;20025;-80
2023/01/18 12:04:05;;;;;;;3.80;2.80;;;2.50;99.90;;;;;;5026162;28;20469;-80
2023/01/18 12:06:37;;;;;;;2.70;2.00;;;2.70;99.90;;;;;;5024469;28;20030;-80
2023/01/18 12:09:18;;;;;;;3.07;2.10;;;2.80;99.90;;;;;;5022802;28;20018;-80
2023/01/18 12:12:00;;;;;;;2.73;2.10;;;3.10;99.90;;;;;;5006923;28;20113;-80
2023/01/18 12:14:26;;;;;;;2.73;2.20;;;3.20;99.90;;;;;;5021358;28;20037;-80
2023/01/18 12:17:13;;;;;;;5.77;2.20;;;3.20;99.90;;;;;;5010291;28;20036;-81
2023/01/18 12:20:10;;;;;;;3.50;2.50;;;3.20;99.90;;;;;;5026664;28;20033;-80
2023/01/18 12:23:12;;;;;;;7.00;2.70;;;3.10;99.90;;;;;;5022502;28;20056;-80
2023/01/18 12:26:01;;;;;;;4.43;3.10;;;3.00;99.90;;;;;;5028013;28;20858;-80
2023/01/18 12:29:10;;;;;;;3.70;2.73;;;2.80;99.90;;;;;;4994650;28;20026;-80
2023/01/18 12:32:13;;;;;;;3.40;2.70;;;2.70;99.90;;;;;;5002501;28;20881;-80
2023/01/18 12:35:11;;;;;;;4.23;2.40;;;2.80;99.90;;;;;;5027314;28;20347;-80
2023/01/18 12:38:07;;;;;;;2.97;2.30;;;2.70;99.90;;;;;;5029391;28;20092;-80
2023/01/18 12:41:11;;;;;;;3.00;2.47;;;2.60;99.90;;;;;;5008801;28;20061;-80
2023/01/18 12:44:18;;;;;;;3.20;2.20;;;2.60;99.90;;;;;;5027436;28;20022;-80
2023/01/18 12:47:04;;;;;;;2.73;2.20;;;2.70;99.90;;;;;;5007132;28;20040;-87
2023/01/18 12:49:33;;;;;;;;;;;2.80;99.90;;;;;;5027069;28;20112;-87
2023/01/18 12:52:00;;;;;;;4.37;2.40;;;3.00;99.90;;;;;;5026036;28;19947;-86
2023/01/18 12:54:41;;;;;;;4.37;3.00;;;3.00;99.90;;;;;;5023460;28;20014;-86
2023/01/18 12:57:08;;;;;;;4.03;2.90;;;3.00;99.90;;;;;;5025936;28;20070;-86
2023/01/18 12:59:57;;;;;;;5.03;3.03;;;2.80;99.90;;;;;;5004704;28;20614;-81
2023/01/18 13:02:33;;;;;;;3.57;2.83;;;2.60;99.90;;;;;;5017183;28;20022;-86
2023/01/18 13:05:17;;;;;;;5.47;3.37;;;2.20;99.90;;;;;;5015176;28;20116;-87
2023/01/18 13:07:47;;;;;;;3.23;2.90;;;1.90;99.90;;;;;;5019727;28;20079;-88
2023/01/18 13:10:20;;;;;;;4.97;3.30;;;1.80;99.90;;;;;;5019290;28;20431;-86
2023/01/18 13:12:48;;;;;;;4.43;3.03;;;1.60;99.90;;;;;;5004662;28;20057;-85
2023/01/18 13:15:29;;;;;;;5.20;3.10;;;1.50;99.90;;;;;;5015070;28;20123;-76
2023/01/18 13:18:36;;;;;;;4.93;3.37;;;1.40;99.90;;;;;;5018910;28;20033;-86
2023/01/18 13:21:26;;;;;;;3.90;3.03;;;1.30;99.90;;;;;;4997286;28;20037;-85
2023/01/18 13:24:18;;;;;;;5.90;2.90;;;1.30;99.90;;;;;;5015819;28;20028;-85
2023/01/18 13:26:44;;;;;;;3.87;3.00;;;1.20;99.90;;;;;;5016620;28;20013;-85
2023/01/18 13:29:12;;;;;;;4.70;3.10;;;1.20;99.90;;;;;;5001716;28;20032;-85
2023/01/18 13:31:38;;;;;;;5.33;3.70;;;1.20;99.90;;;;;;5013476;28;20034;-85
2023/01/18 13:34:14;;;;;;;4.10;3.10;;;1.20;99.90;;;;;;5020189;28;20035;-84
2023/01/18 13:36:44;;;;;;;4.70;3.20;;;1.20;99.90;;;;;;5006997;28;20079;-84
2023/01/18 13:39:16;;;;;;;3.93;3.00;;;1.20;99.90;;;;;;5003789;28;20474;-84
2023/01/18 13:42:03;;;;;;;5.50;3.60;;;1.20;99.90;;;;;;5015112;28;20045;-75
2023/01/18 13:44:43;;;;;;;4.67;3.30;;;1.20;99.90;;;;;;5017319;28;20056;-84
2023/01/18 13:47:38;;;;;;;3.87;3.00;;;1.20;99.90;;;;;;5016338;28;20041;-84
2023/01/18 13:50:36;;;;;;;5.07;3.33;;;1.20;99.90;;;;;;5014939;28;20029;-83
2023/01/18 13:53:14;;;;;;;4.10;3.37;;;1.10;99.90;;;;;;5015001;28;20036;-83